Terminal Aerodrome Forecast
Issued by NWS San Angelo, TX

Home | Current Version | Previous Version | Text Only | Print | Product List | Glossary On
Versions: 1 2 3 4 5 6 7 8 9 10 11 12 13 14 15 16 17 18
411
FTUS44 KSJT 191844 AAA
TAFSJT
TAF AMD
KSJT 191844Z 1919/2018 17009KT P6SM VCTS FEW070CB
     FM200000 16008KT P6SM FEW250=

USA.gov is the U.S. government's official web portal to all federal, state and local government web resources and services.